sensor_id;sensor_type;location;lat;lon;timestamp;P1;durP1;ratioP1;P2;durP2;ratioP2
3993;SDS011;2011;48.238;13.948;2022-11-10T00:00:46;62.53;;;29.90;;
3993;SDS011;2011;48.238;13.948;2022-11-10T00:03:13;57.60;;;28.43;;
3993;SDS011;2011;48.238;13.948;2022-11-10T00:05:43;59.70;;;27.83;;
3993;SDS011;2011;48.238;13.948;2022-11-10T00:08:10;62.43;;;26.20;;
3993;SDS011;2011;48.238;13.948;2022-11-10T00:10:38;62.47;;;28.63;;
3993;SDS011;2011;48.238;13.948;2022-11-10T00:13:19;49.47;;;26.17;;
3993;SDS011;2011;48.238;13.948;2022-11-10T00:15:46;55.30;;;25.93;;
3993;SDS011;2011;48.238;13.948;2022-11-10T00:18:31;86.27;;;30.10;;
3993;SDS011;2011;48.238;13.948;2022-11-10T00:21:02;73.13;;;28.87;;
3993;SDS011;2011;48.238;13.948;2022-11-10T00:23:31;52.23;;;26.93;;
3993;SDS011;2011;48.238;13.948;2022-11-10T00:25:58;67.43;;;27.40;;
3993;SDS011;2011;48.238;13.948;2022-11-10T00:28:25;61.07;;;26.80;;
3993;SDS011;2011;48.238;13.948;2022-11-10T00:30:54;55.27;;;25.80;;
3993;SDS011;2011;48.238;13.948;2022-11-10T00:33:21;61.80;;;28.30;;
3993;SDS011;2011;48.238;13.948;2022-11-10T00:35:48;72.93;;;27.50;;
3993;SDS011;2011;48.238;13.948;2022-11-10T00:38:17;57.83;;;27.30;;
3993;SDS011;2011;48.238;13.948;2022-11-10T00:40:44;51.10;;;25.40;;
3993;SDS011;2011;48.238;13.948;2022-11-10T00:43:12;65.33;;;28.33;;
3993;SDS011;2011;48.238;13.948;2022-11-10T00:45:40;59.70;;;28.53;;
3993;SDS011;2011;48.238;13.948;2022-11-10T00:48:09;64.63;;;28.63;;
3993;SDS011;2011;48.238;13.948;2022-11-10T00:50:36;56.40;;;28.20;;
3993;SDS011;2011;48.238;13.948;2022-11-10T00:53:03;63.53;;;26.90;;
3993;SDS011;2011;48.238;13.948;2022-11-10T00:55:31;57.73;;;26.90;;
3993;SDS011;2011;48.238;13.948;2022-11-10T00:57:59;54.17;;;26.73;;
3993;SDS011;2011;48.238;13.948;2022-11-10T01:00:26;56.87;;;26.87;;
3993;SDS011;2011;48.238;13.948;2022-11-10T01:02:53;68.07;;;28.40;;
3993;SDS011;2011;48.238;13.948;2022-11-10T01:05:20;54.37;;;26.97;;
3993;SDS011;2011;48.238;13.948;2022-11-10T01:07:47;57.70;;;25.50;;
3993;SDS011;2011;48.238;13.948;2022-11-10T01:10:14;62.77;;;27.80;;
3993;SDS011;2011;48.238;13.948;2022-11-10T01:12:43;65.13;;;29.23;;
3993;SDS011;2011;48.238;13.948;2022-11-10T01:15:10;65.00;;;28.57;;
3993;SDS011;2011;48.238;13.948;2022-11-10T01:17:37;66.90;;;28.90;;
3993;SDS011;2011;48.238;13.948;2022-11-10T01:20:05;63.97;;;28.87;;
3993;SDS011;2011;48.238;13.948;2022-11-10T01:22:33;62.83;;;27.83;;
3993;SDS011;2011;48.238;13.948;2022-11-10T01:25:01;61.63;;;27.70;;
3993;SDS011;2011;48.238;13.948;2022-11-10T01:27:28;53.60;;;25.23;;
3993;SDS011;2011;48.238;13.948;2022-11-10T01:29:56;53.23;;;24.70;;
3993;SDS011;2011;48.238;13.948;2022-11-10T01:32:23;57.50;;;27.17;;
3993;SDS011;2011;48.238;13.948;2022-11-10T01:34:50;51.17;;;24.10;;
3993;SDS011;2011;48.238;13.948;2022-11-10T01:37:17;55.30;;;23.97;;
3993;SDS011;2011;48.238;13.948;2022-11-10T01:39:45;52.07;;;24.10;;
3993;SDS011;2011;48.238;13.948;2022-11-10T01:42:12;45.17;;;23.20;;
3993;SDS011;2011;48.238;13.948;2022-11-10T01:44:39;41.30;;;21.90;;
3993;SDS011;2011;48.238;13.948;2022-11-10T01:47:08;46.73;;;23.07;;
3993;SDS011;2011;48.238;13.948;2022-11-10T01:49:35;42.53;;;21.70;;
3993;SDS011;2011;48.238;13.948;2022-11-10T01:52:03;42.17;;;21.60;;
3993;SDS011;2011;48.238;13.948;2022-11-10T01:54:33;42.23;;;20.87;;
3993;SDS011;2011;48.238;13.948;2022-11-10T01:57:04;60.40;;;24.50;;
3993;SDS011;2011;48.238;13.948;2022-11-10T01:59:34;44.50;;;21.30;;
3993;SDS011;2011;48.238;13.948;2022-11-10T02:02:06;43.13;;;21.13;;
3993;SDS011;2011;48.238;13.948;2022-11-10T02:04:37;44.43;;;21.73;;
3993;SDS011;2011;48.238;13.948;2022-11-10T02:07:06;36.20;;;19.30;;
3993;SDS011;2011;48.238;13.948;2022-11-10T02:09:35;40.77;;;19.30;;
3993;SDS011;2011;48.238;13.948;2022-11-10T02:12:02;36.73;;;18.37;;
3993;SDS011;2011;48.238;13.948;2022-11-10T02:14:29;37.53;;;19.20;;
3993;SDS011;2011;48.238;13.948;2022-11-10T02:16:56;37.10;;;20.30;;
3993;SDS011;2011;48.238;13.948;2022-11-10T02:19:25;43.80;;;21.50;;
3993;SDS011;2011;48.238;13.948;2022-11-10T02:21:54;30.70;;;17.70;;
3993;SDS011;2011;48.238;13.948;2022-11-10T02:24:21;35.20;;;18.93;;
3993;SDS011;2011;48.238;13.948;2022-11-10T02:26:49;46.23;;;21.27;;
3993;SDS011;2011;48.238;13.948;2022-11-10T02:29:19;33.60;;;17.73;;
3993;SDS011;2011;48.238;13.948;2022-11-10T02:31:46;35.47;;;18.40;;
3993;SDS011;2011;48.238;13.948;2022-11-10T02:34:13;34.10;;;18.40;;
3993;SDS011;2011;48.238;13.948;2022-11-10T02:36:40;30.00;;;17.70;;
3993;SDS011;2011;48.238;13.948;2022-11-10T02:39:08;29.90;;;16.97;;
3993;SDS011;2011;48.238;13.948;2022-11-10T02:41:35;29.03;;;16.20;;
3993;SDS011;2011;48.238;13.948;2022-11-10T02:44:02;32.87;;;18.73;;
3993;SDS011;2011;48.238;13.948;2022-11-10T02:46:30;35.37;;;18.73;;
3993;SDS011;2011;48.238;13.948;2022-11-10T02:48:58;32.63;;;17.43;;
3993;SDS011;2011;48.238;13.948;2022-11-10T02:51:25;33.17;;;19.30;;
3993;SDS011;2011;48.238;13.948;2022-11-10T02:53:52;26.37;;;16.20;;
3993;SDS011;2011;48.238;13.948;2022-11-10T02:56:20;23.83;;;15.00;;
3993;SDS011;2011;48.238;13.948;2022-11-10T02:58:47;24.47;;;15.30;;
3993;SDS011;2011;48.238;13.948;2022-11-10T03:01:14;26.70;;;16.10;;
3993;SDS011;2011;48.238;13.948;2022-11-10T03:03:41;28.87;;;17.37;;
3993;SDS011;2011;48.238;13.948;2022-11-10T03:06:08;25.50;;;15.30;;
3993;SDS011;2011;48.238;13.948;2022-11-10T03:08:35;26.20;;;15.50;;
3993;SDS011;2011;48.238;13.948;2022-11-10T03:11:03;27.97;;;16.50;;
3993;SDS011;2011;48.238;13.948;2022-11-10T03:13:32;26.70;;;15.87;;
3993;SDS011;2011;48.238;13.948;2022-11-10T03:15:59;42.17;;;17.13;;
3993;SDS011;2011;48.238;13.948;2022-11-10T03:18:26;29.37;;;17.20;;
3993;SDS011;2011;48.238;13.948;2022-11-10T03:20:53;29.67;;;18.07;;
3993;SDS011;2011;48.238;13.948;2022-11-10T03:23:20;28.87;;;16.80;;
3993;SDS011;2011;48.238;13.948;2022-11-10T03:25:47;30.50;;;17.00;;
3993;SDS011;2011;48.238;13.948;2022-11-10T03:28:14;27.40;;;16.10;;
3993;SDS011;2011;48.238;13.948;2022-11-10T03:30:42;31.63;;;16.97;;
3993;SDS011;2011;48.238;13.948;2022-11-10T03:33:10;31.57;;;17.70;;
3993;SDS011;2011;48.238;13.948;2022-11-10T03:35:37;32.90;;;18.23;;
3993;SDS011;2011;48.238;13.948;2022-11-10T03:38:04;33.83;;;18.57;;
3993;SDS011;2011;48.238;13.948;2022-11-10T03:40:31;37.93;;;20.97;;
3993;SDS011;2011;48.238;13.948;2022-11-10T03:42:58;41.30;;;21.50;;
3993;SDS011;2011;48.238;13.948;2022-11-10T03:45:25;34.00;;;18.83;;
3993;SDS011;2011;48.238;13.948;2022-11-10T03:47:54;41.70;;;22.87;;
3993;SDS011;2011;48.238;13.948;2022-11-10T03:50:20;41.50;;;20.77;;
3993;SDS011;2011;48.238;13.948;2022-11-10T03:52:48;38.30;;;20.87;;
3993;SDS011;2011;48.238;13.948;2022-11-10T03:55:16;38.27;;;19.37;;
3993;SDS011;2011;48.238;13.948;2022-11-10T03:57:45;39.53;;;20.30;;
3993;SDS011;2011;48.238;13.948;2022-11-10T04:00:12;30.60;;;18.03;;
3993;SDS011;2011;48.238;13.948;2022-11-10T04:02:40;34.07;;;19.67;;
3993;SDS011;2011;48.238;13.948;2022-11-10T04:05:08;34.30;;;19.53;;
3993;SDS011;2011;48.238;13.948;2022-11-10T04:07:57;36.83;;;19.00;;
3993;SDS011;2011;48.238;13.948;2022-11-10T04:10:42;42.37;;;20.77;;
3993;SDS011;2011;48.238;13.948;2022-11-10T04:13:09;35.17;;;18.30;;
3993;SDS011;2011;48.238;13.948;2022-11-10T04:15:54;35.47;;;18.90;;
3993;SDS011;2011;48.238;13.948;2022-11-10T04:18:21;32.67;;;18.67;;
3993;SDS011;2011;48.238;13.948;2022-11-10T04:20:53;33.50;;;17.40;;
3993;SDS011;2011;48.238;13.948;2022-11-10T04:23:21;41.37;;;20.47;;
3993;SDS011;2011;48.238;13.948;2022-11-10T04:25:53;30.83;;;18.40;;
3993;SDS011;2011;48.238;13.948;2022-11-10T04:28:38;34.80;;;19.20;;
3993;SDS011;2011;48.238;13.948;2022-11-10T04:31:06;41.03;;;21.10;;
3993;SDS011;2011;48.238;13.948;2022-11-10T04:33:34;48.43;;;22.93;;
3993;SDS011;2011;48.238;13.948;2022-11-10T04:36:03;32.60;;;18.10;;
3993;SDS011;2011;48.238;13.948;2022-11-10T04:38:31;42.43;;;21.33;;
3993;SDS011;2011;48.238;13.948;2022-11-10T04:40:58;50.50;;;23.50;;
3993;SDS011;2011;48.238;13.948;2022-11-10T04:43:25;50.33;;;22.70;;
3993;SDS011;2011;48.238;13.948;2022-11-10T04:45:52;38.30;;;18.60;;
3993;SDS011;2011;48.238;13.948;2022-11-10T04:48:20;36.43;;;20.37;;
3993;SDS011;2011;48.238;13.948;2022-11-10T04:50:47;47.83;;;22.50;;
3993;SDS011;2011;48.238;13.948;2022-11-10T04:53:15;38.53;;;21.77;;
3993;SDS011;2011;48.238;13.948;2022-11-10T04:55:43;45.13;;;19.83;;
3993;SDS011;2011;48.238;13.948;2022-11-10T04:58:10;45.37;;;20.57;;
3993;SDS011;2011;48.238;13.948;2022-11-10T05:00:39;35.53;;;19.37;;
3993;SDS011;2011;48.238;13.948;2022-11-10T05:03:07;34.50;;;17.97;;
3993;SDS011;2011;48.238;13.948;2022-11-10T05:05:36;35.20;;;19.33;;
3993;SDS011;2011;48.238;13.948;2022-11-10T05:08:03;34.10;;;17.20;;
3993;SDS011;2011;48.238;13.948;2022-11-10T05:10:32;29.53;;;17.60;;
3993;SDS011;2011;48.238;13.948;2022-11-10T05:12:59;28.50;;;17.50;;
3993;SDS011;2011;48.238;13.948;2022-11-10T05:15:26;28.87;;;16.90;;
3993;SDS011;2011;48.238;13.948;2022-11-10T05:17:53;31.90;;;17.20;;
3993;SDS011;2011;48.238;13.948;2022-11-10T05:20:21;33.00;;;18.10;;
3993;SDS011;2011;48.238;13.948;2022-11-10T05:22:49;35.40;;;17.67;;
3993;SDS011;2011;48.238;13.948;2022-11-10T05:25:37;34.67;;;18.50;;
3993;SDS011;2011;48.238;13.948;2022-11-10T05:28:05;28.87;;;17.37;;
3993;SDS011;2011;48.238;13.948;2022-11-10T05:30:34;29.03;;;16.80;;
3993;SDS011;2011;48.238;13.948;2022-11-10T05:33:01;29.27;;;17.20;;
3993;SDS011;2011;48.238;13.948;2022-11-10T05:35:29;33.30;;;17.60;;
3993;SDS011;2011;48.238;13.948;2022-11-10T05:37:56;24.93;;;16.50;;
3993;SDS011;2011;48.238;13.948;2022-11-10T05:40:23;31.90;;;18.00;;
3993;SDS011;2011;48.238;13.948;2022-11-10T05:42:52;32.30;;;19.20;;
3993;SDS011;2011;48.238;13.948;2022-11-10T05:45:20;39.17;;;20.80;;
3993;SDS011;2011;48.238;13.948;2022-11-10T05:47:48;34.47;;;19.23;;
3993;SDS011;2011;48.238;13.948;2022-11-10T05:50:15;33.37;;;19.27;;
3993;SDS011;2011;48.238;13.948;2022-11-10T05:52:43;33.70;;;18.27;;
3993;SDS011;2011;48.238;13.948;2022-11-10T05:55:11;34.53;;;19.60;;
3993;SDS011;2011;48.238;13.948;2022-11-10T05:57:40;51.33;;;21.63;;
3993;SDS011;2011;48.238;13.948;2022-11-10T06:00:10;34.23;;;19.57;;
3993;SDS011;2011;48.238;13.948;2022-11-10T06:02:38;33.37;;;19.60;;
3993;SDS011;2011;48.238;13.948;2022-11-10T06:05:06;33.20;;;19.37;;
3993;SDS011;2011;48.238;13.948;2022-11-10T06:07:33;36.60;;;20.23;;
3993;SDS011;2011;48.238;13.948;2022-11-10T06:10:00;50.20;;;22.90;;
3993;SDS011;2011;48.238;13.948;2022-11-10T06:12:27;31.37;;;20.20;;
3993;SDS011;2011;48.238;13.948;2022-11-10T06:14:55;32.33;;;19.23;;
3993;SDS011;2011;48.238;13.948;2022-11-10T06:17:24;41.80;;;21.47;;
3993;SDS011;2011;48.238;13.948;2022-11-10T06:19:51;31.57;;;19.83;;
3993;SDS011;2011;48.238;13.948;2022-11-10T06:22:18;35.20;;;21.10;;
3993;SDS011;2011;48.238;13.948;2022-11-10T06:24:45;37.20;;;20.70;;
3993;SDS011;2011;48.238;13.948;2022-11-10T06:27:12;40.70;;;22.67;;
3993;SDS011;2011;48.238;13.948;2022-11-10T06:29:39;40.23;;;22.60;;
3993;SDS011;2011;48.238;13.948;2022-11-10T06:32:06;37.67;;;20.00;;
3993;SDS011;2011;48.238;13.948;2022-11-10T06:34:36;38.97;;;20.13;;
3993;SDS011;2011;48.238;13.948;2022-11-10T06:37:03;35.67;;;20.97;;
3993;SDS011;2011;48.238;13.948;2022-11-10T06:39:30;38.80;;;20.20;;
3993;SDS011;2011;48.238;13.948;2022-11-10T06:41:57;33.30;;;18.00;;
3993;SDS011;2011;48.238;13.948;2022-11-10T06:44:24;34.67;;;19.20;;
3993;SDS011;2011;48.238;13.948;2022-11-10T06:46:51;37.50;;;19.67;;
3993;SDS011;2011;48.238;13.948;2022-11-10T06:49:18;36.93;;;20.17;;
3993;SDS011;2011;48.238;13.948;2022-11-10T06:51:47;33.40;;;18.93;;
3993;SDS011;2011;48.238;13.948;2022-11-10T06:54:14;34.10;;;22.20;;
3993;SDS011;2011;48.238;13.948;2022-11-10T06:56:41;39.77;;;20.73;;
3993;SDS011;2011;48.238;13.948;2022-11-10T06:59:08;38.07;;;21.67;;
3993;SDS011;2011;48.238;13.948;2022-11-10T07:01:35;35.93;;;19.50;;
3993;SDS011;2011;48.238;13.948;2022-11-10T07:04:02;30.80;;;18.00;;
3993;SDS011;2011;48.238;13.948;2022-11-10T07:06:30;39.43;;;21.23;;
3993;SDS011;2011;48.238;13.948;2022-11-10T07:08:59;37.73;;;21.53;;
3993;SDS011;2011;48.238;13.948;2022-11-10T07:11:26;39.23;;;21.33;;
3993;SDS011;2011;48.238;13.948;2022-11-10T07:13:53;33.80;;;19.27;;
3993;SDS011;2011;48.238;13.948;2022-11-10T07:16:20;54.13;;;23.53;;
3993;SDS011;2011;48.238;13.948;2022-11-10T07:18:47;54.80;;;25.03;;
3993;SDS011;2011;48.238;13.948;2022-11-10T07:21:14;47.77;;;25.10;;
3993;SDS011;2011;48.238;13.948;2022-11-10T07:23:41;45.93;;;23.93;;
3993;SDS011;2011;48.238;13.948;2022-11-10T07:26:10;36.73;;;21.90;;
3993;SDS011;2011;48.238;13.948;2022-11-10T07:28:37;45.33;;;22.90;;
3993;SDS011;2011;48.238;13.948;2022-11-10T07:31:04;38.70;;;21.07;;
3993;SDS011;2011;48.238;13.948;2022-11-10T07:33:31;64.23;;;26.37;;
3993;SDS011;2011;48.238;13.948;2022-11-10T07:35:59;42.90;;;22.70;;
3993;SDS011;2011;48.238;13.948;2022-11-10T07:38:28;48.43;;;24.17;;
3993;SDS011;2011;48.238;13.948;2022-11-10T07:40:55;70.17;;;33.10;;
3993;SDS011;2011;48.238;13.948;2022-11-10T07:43:24;45.33;;;24.20;;
3993;SDS011;2011;48.238;13.948;2022-11-10T07:45:51;41.60;;;21.77;;
3993;SDS011;2011;48.238;13.948;2022-11-10T07:48:18;39.67;;;21.17;;
3993;SDS011;2011;48.238;13.948;2022-11-10T07:50:46;51.83;;;27.07;;
3993;SDS011;2011;48.238;13.948;2022-11-10T07:53:14;35.30;;;21.23;;
3993;SDS011;2011;48.238;13.948;2022-11-10T07:55:44;46.80;;;20.70;;
3993;SDS011;2011;48.238;13.948;2022-11-10T07:58:12;41.63;;;20.70;;
3993;SDS011;2011;48.238;13.948;2022-11-10T08:00:41;55.43;;;24.83;;
3993;SDS011;2011;48.238;13.948;2022-11-10T08:03:10;37.90;;;21.40;;
3993;SDS011;2011;48.238;13.948;2022-11-10T08:05:38;45.83;;;24.63;;
3993;SDS011;2011;48.238;13.948;2022-11-10T08:08:05;31.83;;;20.23;;
3993;SDS011;2011;48.238;13.948;2022-11-10T08:10:33;36.90;;;21.20;;
3993;SDS011;2011;48.238;13.948;2022-11-10T08:13:01;47.53;;;23.10;;
3993;SDS011;2011;48.238;13.948;2022-11-10T08:15:29;46.43;;;25.57;;
3993;SDS011;2011;48.238;13.948;2022-11-10T08:17:59;43.93;;;22.70;;
3993;SDS011;2011;48.238;13.948;2022-11-10T08:20:28;43.87;;;20.93;;
3993;SDS011;2011;48.238;13.948;2022-11-10T08:22:55;29.90;;;19.23;;
3993;SDS011;2011;48.238;13.948;2022-11-10T08:25:24;45.27;;;25.40;;
3993;SDS011;2011;48.238;13.948;2022-11-10T08:27:55;36.83;;;22.07;;
3993;SDS011;2011;48.238;13.948;2022-11-10T08:30:23;28.57;;;18.57;;
3993;SDS011;2011;48.238;13.948;2022-11-10T08:32:52;27.10;;;18.67;;
3993;SDS011;2011;48.238;13.948;2022-11-10T08:35:21;34.67;;;20.70;;
3993;SDS011;2011;48.238;13.948;2022-11-10T08:37:49;24.97;;;16.67;;
3993;SDS011;2011;48.238;13.948;2022-11-10T08:40:16;30.20;;;16.73;;
3993;SDS011;2011;48.238;13.948;2022-11-10T08:42:44;28.50;;;17.67;;
3993;SDS011;2011;48.238;13.948;2022-11-10T08:45:11;34.60;;;18.90;;
3993;SDS011;2011;48.238;13.948;2022-11-10T08:47:39;34.23;;;20.87;;
3993;SDS011;2011;48.238;13.948;2022-11-10T08:50:06;29.17;;;17.87;;
3993;SDS011;2011;48.238;13.948;2022-11-10T08:52:35;25.77;;;17.63;;
3993;SDS011;2011;48.238;13.948;2022-11-10T08:55:02;23.00;;;14.77;;
3993;SDS011;2011;48.238;13.948;2022-11-10T08:57:29;20.73;;;14.10;;
3993;SDS011;2011;48.238;13.948;2022-11-10T08:59:56;27.57;;;16.30;;
3993;SDS011;2011;48.238;13.948;2022-11-10T09:02:23;31.23;;;16.10;;
3993;SDS011;2011;48.238;13.948;2022-11-10T09:04:50;25.50;;;15.13;;
3993;SDS011;2011;48.238;13.948;2022-11-10T09:07:17;32.07;;;16.00;;
3993;SDS011;2011;48.238;13.948;2022-11-10T09:09:46;22.93;;;15.67;;
3993;SDS011;2011;48.238;13.948;2022-11-10T09:12:13;20.63;;;14.77;;
3993;SDS011;2011;48.238;13.948;2022-11-10T09:14:40;24.17;;;13.93;;
3993;SDS011;2011;48.238;13.948;2022-11-10T09:17:07;18.83;;;14.47;;
3993;SDS011;2011;48.238;13.948;2022-11-10T09:19:34;33.43;;;16.50;;
3993;SDS011;2011;48.238;13.948;2022-11-10T09:22:01;28.50;;;18.10;;
3993;SDS011;2011;48.238;13.948;2022-11-10T09:24:28;26.37;;;16.10;;
3993;SDS011;2011;48.238;13.948;2022-11-10T09:26:57;31.57;;;15.97;;
3993;SDS011;2011;48.238;13.948;2022-11-10T09:29:23;27.90;;;17.73;;
3993;SDS011;2011;48.238;13.948;2022-11-10T09:31:50;33.67;;;18.63;;
3993;SDS011;2011;48.238;13.948;2022-11-10T09:34:18;25.30;;;16.43;;
3993;SDS011;2011;48.238;13.948;2022-11-10T09:36:45;22.60;;;15.60;;
3993;SDS011;2011;48.238;13.948;2022-11-10T09:39:12;25.13;;;16.07;;
3993;SDS011;2011;48.238;13.948;2022-11-10T09:41:39;47.00;;;25.33;;
3993;SDS011;2011;48.238;13.948;2022-11-10T09:44:11;32.10;;;19.43;;
3993;SDS011;2011;48.238;13.948;2022-11-10T09:46:44;32.97;;;19.83;;
3993;SDS011;2011;48.238;13.948;2022-11-10T09:49:22;29.27;;;18.77;;
3993;SDS011;2011;48.238;13.948;2022-11-10T09:51:54;34.30;;;17.90;;
3993;SDS011;2011;48.238;13.948;2022-11-10T09:54:33;32.43;;;20.90;;
3993;SDS011;2011;48.238;13.948;2022-11-10T09:57:05;27.17;;;17.73;;
3993;SDS011;2011;48.238;13.948;2022-11-10T09:59:37;29.47;;;18.63;;
3993;SDS011;2011;48.238;13.948;2022-11-10T10:02:04;32.33;;;18.17;;
3993;SDS011;2011;48.238;13.948;2022-11-10T10:04:47;35.70;;;21.33;;
3993;SDS011;2011;48.238;13.948;2022-11-10T10:07:33;29.80;;;18.87;;
3993;SDS011;2011;48.238;13.948;2022-11-10T10:10:09;30.37;;;17.90;;
3993;SDS011;2011;48.238;13.948;2022-11-10T10:12:44;32.67;;;19.23;;
3993;SDS011;2011;48.238;13.948;2022-11-10T10:15:25;24.93;;;16.80;;
3993;SDS011;2011;48.238;13.948;2022-11-10T10:18:02;29.97;;;19.53;;
3993;SDS011;2011;48.238;13.948;2022-11-10T10:20:41;28.87;;;18.10;;
3993;SDS011;2011;48.238;13.948;2022-11-10T10:23:19;23.70;;;16.53;;
3993;SDS011;2011;48.238;13.948;2022-11-10T10:25:51;28.13;;;17.40;;
3993;SDS011;2011;48.238;13.948;2022-11-10T10:28:22;32.80;;;16.83;;
3993;SDS011;2011;48.238;13.948;2022-11-10T10:30:54;23.00;;;15.00;;
3993;SDS011;2011;48.238;13.948;2022-11-10T10:33:32;22.70;;;15.27;;
3993;SDS011;2011;48.238;13.948;2022-11-10T10:35:59;26.10;;;16.90;;
3993;SDS011;2011;48.238;13.948;2022-11-10T10:38:33;25.63;;;15.87;;
3993;SDS011;2011;48.238;13.948;2022-11-10T10:41:09;22.97;;;15.30;;
3993;SDS011;2011;48.238;13.948;2022-11-10T10:43:39;33.03;;;17.50;;
3993;SDS011;2011;48.238;13.948;2022-11-10T10:46:08;30.80;;;18.67;;
3993;SDS011;2011;48.238;13.948;2022-11-10T10:48:39;34.43;;;19.23;;
3993;SDS011;2011;48.238;13.948;2022-11-10T10:51:06;35.30;;;18.57;;
3993;SDS011;2011;48.238;13.948;2022-11-10T10:53:43;25.83;;;17.23;;
3993;SDS011;2011;48.238;13.948;2022-11-10T10:56:13;29.73;;;18.20;;
3993;SDS011;2011;48.238;13.948;2022-11-10T10:58:50;26.07;;;17.67;;
3993;SDS011;2011;48.238;13.948;2022-11-10T11:01:23;28.90;;;17.00;;
3993;SDS011;2011;48.238;13.948;2022-11-10T11:03:54;31.57;;;15.63;;
3993;SDS011;2011;48.238;13.948;2022-11-10T11:06:22;24.93;;;15.73;;
3993;SDS011;2011;48.238;13.948;2022-11-10T11:08:52;31.23;;;18.27;;
3993;SDS011;2011;48.238;13.948;2022-11-10T11:11:23;29.50;;;16.80;;
3993;SDS011;2011;48.238;13.948;2022-11-10T11:13:50;47.73;;;21.90;;
3993;SDS011;2011;48.238;13.948;2022-11-10T11:16:18;32.20;;;17.00;;
3993;SDS011;2011;48.238;13.948;2022-11-10T11:18:46;35.03;;;19.83;;
3993;SDS011;2011;48.238;13.948;2022-11-10T11:21:17;22.63;;;14.60;;
3993;SDS011;2011;48.238;13.948;2022-11-10T11:23:58;20.90;;;13.57;;
3993;SDS011;2011;48.238;13.948;2022-11-10T11:26:38;30.63;;;12.70;;
3993;SDS011;2011;48.238;13.948;2022-11-10T11:29:15;17.33;;;11.97;;
3993;SDS011;2011;48.238;13.948;2022-11-10T11:31:57;16.30;;;12.03;;
3993;SDS011;2011;48.238;13.948;2022-11-10T11:34:38;20.53;;;13.00;;
3993;SDS011;2011;48.238;13.948;2022-11-10T11:37:15;17.60;;;11.80;;
3993;SDS011;2011;48.238;13.948;2022-11-10T11:39:52;18.00;;;10.30;;
3993;SDS011;2011;48.238;13.948;2022-11-10T11:42:32;19.73;;;10.23;;
3993;SDS011;2011;48.238;13.948;2022-11-10T11:45:14;18.60;;;11.43;;
3993;SDS011;2011;48.238;13.948;2022-11-10T11:47:50;15.30;;;10.13;;
3993;SDS011;2011;48.238;13.948;2022-11-10T11:50:38;18.20;;;9.90;;
3993;SDS011;2011;48.238;13.948;2022-11-10T11:53:12;25.57;;;10.60;;
3993;SDS011;2011;48.238;13.948;2022-11-10T11:55:58;18.70;;;9.67;;
3993;SDS011;2011;48.238;13.948;2022-11-10T11:58:37;23.77;;;9.50;;
3993;SDS011;2011;48.238;13.948;2022-11-10T12:01:17;16.50;;;9.13;;
3993;SDS011;2011;48.238;13.948;2022-11-10T12:04:10;17.90;;;9.67;;
3993;SDS011;2011;48.238;13.948;2022-11-10T12:06:58;13.13;;;9.50;;
3993;SDS011;2011;48.238;13.948;2022-11-10T12:09:36;17.03;;;8.10;;
3993;SDS011;2011;48.238;13.948;2022-11-10T12:12:17;13.00;;;8.70;;
3993;SDS011;2011;48.238;13.948;2022-11-10T12:14:57;19.43;;;7.10;;
3993;SDS011;2011;48.238;13.948;2022-11-10T12:17:31;13.97;;;6.60;;
3993;SDS011;2011;48.238;13.948;2022-11-10T12:20:08;15.03;;;7.70;;
3993;SDS011;2011;48.238;13.948;2022-11-10T12:22:50;15.33;;;7.83;;
3993;SDS011;2011;48.238;13.948;2022-11-10T12:25:23;15.23;;;7.30;;
3993;SDS011;2011;48.238;13.948;2022-11-10T12:28:07;11.13;;;6.97;;
3993;SDS011;2011;48.238;13.948;2022-11-10T12:30:37;13.13;;;6.90;;
3993;SDS011;2011;48.238;13.948;2022-11-10T12:33:10;12.60;;;6.77;;
3993;SDS011;2011;48.238;13.948;2022-11-10T12:35:42;12.93;;;6.57;;
3993;SDS011;2011;48.238;13.948;2022-11-10T12:38:13;12.70;;;5.83;;
3993;SDS011;2011;48.238;13.948;2022-11-10T12:40:46;13.77;;;7.17;;
3993;SDS011;2011;48.238;13.948;2022-11-10T12:43:17;11.80;;;7.10;;
3993;SDS011;2011;48.238;13.948;2022-11-10T12:45:52;18.53;;;7.93;;
3993;SDS011;2011;48.238;13.948;2022-11-10T12:48:23;28.73;;;9.30;;
3993;SDS011;2011;48.238;13.948;2022-11-10T12:50:56;12.73;;;8.97;;
3993;SDS011;2011;48.238;13.948;2022-11-10T12:53:30;16.43;;;9.40;;
3993;SDS011;2011;48.238;13.948;2022-11-10T12:56:01;14.40;;;9.10;;
3993;SDS011;2011;48.238;13.948;2022-11-10T12:58:31;14.30;;;8.60;;
3993;SDS011;2011;48.238;13.948;2022-11-10T13:00:59;16.90;;;9.83;;
3993;SDS011;2011;48.238;13.948;2022-11-10T13:03:29;20.97;;;9.23;;
3993;SDS011;2011;48.238;13.948;2022-11-10T13:05:58;16.17;;;9.67;;
3993;SDS011;2011;48.238;13.948;2022-11-10T13:08:33;13.70;;;8.93;;
3993;SDS011;2011;48.238;13.948;2022-11-10T13:11:04;17.40;;;9.50;;
3993;SDS011;2011;48.238;13.948;2022-11-10T13:13:46;13.83;;;8.97;;
3993;SDS011;2011;48.238;13.948;2022-11-10T13:22:26;17.27;;;9.50;;
3993;SDS011;2011;48.238;13.948;2022-11-10T13:28:01;18.20;;;7.70;;
3993;SDS011;2011;48.238;13.948;2022-11-10T13:30:39;12.67;;;7.50;;
3993;SDS011;2011;48.238;13.948;2022-11-10T13:33:27;12.00;;;7.27;;
3993;SDS011;2011;48.238;13.948;2022-11-10T13:35:56;24.63;;;8.10;;
3993;SDS011;2011;48.238;13.948;2022-11-10T13:38:33;15.00;;;8.40;;
3993;SDS011;2011;48.238;13.948;2022-11-10T13:41:18;15.10;;;8.13;;
3993;SDS011;2011;48.238;13.948;2022-11-10T13:43:49;14.10;;;7.70;;
3993;SDS011;2011;48.238;13.948;2022-11-10T13:46:17;13.30;;;7.37;;
3993;SDS011;2011;48.238;13.948;2022-11-10T13:48:54;11.57;;;6.87;;
3993;SDS011;2011;48.238;13.948;2022-11-10T13:51:40;15.27;;;8.07;;
3993;SDS011;2011;48.238;13.948;2022-11-10T13:54:18;15.40;;;7.60;;
3993;SDS011;2011;48.238;13.948;2022-11-10T13:57:08;14.03;;;7.40;;
3993;SDS011;2011;48.238;13.948;2022-11-10T13:59:46;19.67;;;8.00;;
3993;SDS011;2011;48.238;13.948;2022-11-10T14:08:23;21.17;;;8.20;;
3993;SDS011;2011;48.238;13.948;2022-11-10T14:10:55;21.93;;;8.00;;
3993;SDS011;2011;48.238;13.948;2022-11-10T14:13:26;12.03;;;7.30;;
3993;SDS011;2011;48.238;13.948;2022-11-10T14:16:00;16.63;;;8.23;;
3993;SDS011;2011;48.238;13.948;2022-11-10T14:18:28;18.33;;;7.70;;
3993;SDS011;2011;48.238;13.948;2022-11-10T14:21:04;19.00;;;8.30;;
3993;SDS011;2011;48.238;13.948;2022-11-10T14:23:32;14.30;;;7.93;;
3993;SDS011;2011;48.238;13.948;2022-11-10T14:26:11;15.33;;;7.47;;
3993;SDS011;2011;48.238;13.948;2022-11-10T14:28:44;17.67;;;9.23;;
3993;SDS011;2011;48.238;13.948;2022-11-10T14:31:15;18.03;;;8.00;;
3993;SDS011;2011;48.238;13.948;2022-11-10T14:33:51;11.80;;;6.97;;
3993;SDS011;2011;48.238;13.948;2022-11-10T14:36:19;14.90;;;7.50;;
3993;SDS011;2011;48.238;13.948;2022-11-10T14:38:47;12.17;;;7.00;;
3993;SDS011;2011;48.238;13.948;2022-11-10T14:41:16;17.53;;;7.97;;
3993;SDS011;2011;48.238;13.948;2022-11-10T14:43:57;11.83;;;6.67;;
3993;SDS011;2011;48.238;13.948;2022-11-10T14:46:26;15.83;;;7.60;;
3993;SDS011;2011;48.238;13.948;2022-11-10T14:48:54;14.50;;;8.10;;
3993;SDS011;2011;48.238;13.948;2022-11-10T14:51:23;13.07;;;7.00;;
3993;SDS011;2011;48.238;13.948;2022-11-10T14:53:52;21.97;;;7.60;;
3993;SDS011;2011;48.238;13.948;2022-11-10T14:56:21;15.70;;;8.73;;
3993;SDS011;2011;48.238;13.948;2022-11-10T14:58:51;11.17;;;7.53;;
3993;SDS011;2011;48.238;13.948;2022-11-10T15:01:21;20.43;;;8.70;;
3993;SDS011;2011;48.238;13.948;2022-11-10T15:03:51;23.27;;;7.80;;
3993;SDS011;2011;48.238;13.948;2022-11-10T15:06:19;15.70;;;7.23;;
3993;SDS011;2011;48.238;13.948;2022-11-10T15:08:46;12.23;;;7.47;;
3993;SDS011;2011;48.238;13.948;2022-11-10T15:11:32;15.80;;;7.23;;